sensor_id;sensor_type;location;lat;lon;timestamp;P1;durP1;ratioP1;P2;durP2;ratioP2
18875;SDS011;9570;50.854;13.778;2022-10-20T00:01:55;2.43;;;1.43;;
18875;SDS011;9570;50.854;13.778;2022-10-20T00:04:20;3.03;;;1.30;;
18875;SDS011;9570;50.854;13.778;2022-10-20T00:06:46;1.80;;;1.60;;
18875;SDS011;9570;50.854;13.778;2022-10-20T00:09:11;6.33;;;1.83;;
18875;SDS011;9570;50.854;13.778;2022-10-20T00:11:37;4.80;;;1.50;;
18875;SDS011;9570;50.854;13.778;2022-10-20T00:14:03;3.57;;;1.57;;
18875;SDS011;9570;50.854;13.778;2022-10-20T00:16:29;3.63;;;1.57;;
18875;SDS011;9570;50.854;13.778;2022-10-20T00:18:58;3.83;;;1.50;;
18875;SDS011;9570;50.854;13.778;2022-10-20T00:21:24;2.87;;;1.47;;
18875;SDS011;9570;50.854;13.778;2022-10-20T00:23:51;4.63;;;1.50;;
18875;SDS011;9570;50.854;13.778;2022-10-20T00:26:18;3.83;;;1.70;;
18875;SDS011;9570;50.854;13.778;2022-10-20T00:28:45;3.13;;;2.00;;
18875;SDS011;9570;50.854;13.778;2022-10-20T00:31:11;2.53;;;1.77;;
18875;SDS011;9570;50.854;13.778;2022-10-20T00:33:37;2.13;;;1.87;;
18875;SDS011;9570;50.854;13.778;2022-10-20T00:36:05;6.43;;;1.90;;
18875;SDS011;9570;50.854;13.778;2022-10-20T00:38:33;5.10;;;1.93;;
18875;SDS011;9570;50.854;13.778;2022-10-20T00:40:59;4.47;;;2.03;;
18875;SDS011;9570;50.854;13.778;2022-10-20T00:43:43;1.67;;;1.53;;
18875;SDS011;9570;50.854;13.778;2022-10-20T00:46:18;3.50;;;1.73;;
18875;SDS011;9570;50.854;13.778;2022-10-20T00:48:53;6.80;;;1.90;;
18875;SDS011;9570;50.854;13.778;2022-10-20T00:51:21;5.43;;;2.10;;
18875;SDS011;9570;50.854;13.778;2022-10-20T00:53:51;4.97;;;1.90;;
18875;SDS011;9570;50.854;13.778;2022-10-20T00:56:24;4.10;;;2.10;;
18875;SDS011;9570;50.854;13.778;2022-10-20T00:58:49;2.47;;;2.03;;
18875;SDS011;9570;50.854;13.778;2022-10-20T01:01:15;2.50;;;2.00;;
18875;SDS011;9570;50.854;13.778;2022-10-20T01:03:45;6.43;;;1.87;;
18875;SDS011;9570;50.854;13.778;2022-10-20T01:06:14;3.67;;;2.13;;
18875;SDS011;9570;50.854;13.778;2022-10-20T01:08:42;2.80;;;2.10;;
18875;SDS011;9570;50.854;13.778;2022-10-20T01:22:35;5.33;;;2.20;;
18875;SDS011;9570;50.854;13.778;2022-10-20T01:28:42;4.60;;;2.27;;
18875;SDS011;9570;50.854;13.778;2022-10-20T01:31:20;2.37;;;1.90;;
18875;SDS011;9570;50.854;13.778;2022-10-20T01:33:57;3.78;;;2.28;;
18875;SDS011;9570;50.854;13.778;2022-10-20T01:36:36;5.83;;;1.97;;
18875;SDS011;9570;50.854;13.778;2022-10-20T01:39:27;2.42;;;2.22;;
18875;SDS011;9570;50.854;13.778;2022-10-20T01:42:02;6.72;;;2.60;;
18875;SDS011;9570;50.854;13.778;2022-10-20T01:44:36;2.63;;;2.13;;
18875;SDS011;9570;50.854;13.778;2022-10-20T01:47:02;3.00;;;2.00;;
18875;SDS011;9570;50.854;13.778;2022-10-20T01:49:31;6.63;;;2.40;;
18875;SDS011;9570;50.854;13.778;2022-10-20T01:51:56;2.37;;;2.00;;
18875;SDS011;9570;50.854;13.778;2022-10-20T01:54:31;3.13;;;2.10;;
18875;SDS011;9570;50.854;13.778;2022-10-20T02:05:12;4.00;;;2.10;;
18875;SDS011;9570;50.854;13.778;2022-10-20T02:08:03;3.10;;;2.42;;
18875;SDS011;9570;50.854;13.778;2022-10-20T02:10:40;3.67;;;1.80;;
18875;SDS011;9570;50.854;13.778;2022-10-20T02:13:12;6.30;;;2.00;;
18875;SDS011;9570;50.854;13.778;2022-10-20T02:15:39;3.67;;;2.17;;
18875;SDS011;9570;50.854;13.778;2022-10-20T02:18:09;4.20;;;2.40;;
18875;SDS011;9570;50.854;13.778;2022-10-20T02:20:38;2.75;;;2.05;;
18875;SDS011;9570;50.854;13.778;2022-10-20T02:23:07;2.70;;;2.15;;
18875;SDS011;9570;50.854;13.778;2022-10-20T02:25:34;3.30;;;2.10;;
18875;SDS011;9570;50.854;13.778;2022-10-20T02:28:02;5.53;;;2.23;;
18875;SDS011;9570;50.854;13.778;2022-10-20T02:30:29;2.70;;;1.90;;
18875;SDS011;9570;50.854;13.778;2022-10-20T02:32:55;6.63;;;2.40;;
18875;SDS011;9570;50.854;13.778;2022-10-20T02:35:22;3.03;;;2.23;;
18875;SDS011;9570;50.854;13.778;2022-10-20T02:37:52;2.60;;;2.10;;
18875;SDS011;9570;50.854;13.778;2022-10-20T02:40:18;6.63;;;2.23;;
18875;SDS011;9570;50.854;13.778;2022-10-20T02:42:46;8.27;;;2.83;;
18875;SDS011;9570;50.854;13.778;2022-10-20T02:45:11;3.37;;;2.10;;
18875;SDS011;9570;50.854;13.778;2022-10-20T02:47:37;7.27;;;2.20;;
18875;SDS011;9570;50.854;13.778;2022-10-20T02:50:02;3.73;;;2.33;;
18875;SDS011;9570;50.854;13.778;2022-10-20T02:52:29;7.75;;;2.80;;
18875;SDS011;9570;50.854;13.778;2022-10-20T02:54:54;3.60;;;2.20;;
18875;SDS011;9570;50.854;13.778;2022-10-20T02:57:20;4.87;;;2.70;;
18875;SDS011;9570;50.854;13.778;2022-10-20T02:59:45;6.20;;;2.47;;
18875;SDS011;9570;50.854;13.778;2022-10-20T03:02:11;2.80;;;2.53;;
18875;SDS011;9570;50.854;13.778;2022-10-20T03:04:36;5.40;;;3.10;;
18875;SDS011;9570;50.854;13.778;2022-10-20T03:07:02;4.00;;;3.17;;
18875;SDS011;9570;50.854;13.778;2022-10-20T03:09:27;4.33;;;3.00;;
18875;SDS011;9570;50.854;13.778;2022-10-20T03:11:53;5.53;;;3.53;;
18875;SDS011;9570;50.854;13.778;2022-10-20T03:14:18;4.07;;;3.10;;
18875;SDS011;9570;50.854;13.778;2022-10-20T03:16:44;3.73;;;3.33;;
18875;SDS011;9570;50.854;13.778;2022-10-20T03:19:09;8.77;;;3.33;;
18875;SDS011;9570;50.854;13.778;2022-10-20T03:21:35;5.70;;;3.27;;
18875;SDS011;9570;50.854;13.778;2022-10-20T03:24:00;6.27;;;3.80;;
18875;SDS011;9570;50.854;13.778;2022-10-20T03:26:26;6.23;;;3.70;;
18875;SDS011;9570;50.854;13.778;2022-10-20T03:28:51;6.87;;;3.77;;
18875;SDS011;9570;50.854;13.778;2022-10-20T03:31:17;6.67;;;3.80;;
18875;SDS011;9570;50.854;13.778;2022-10-20T03:33:43;4.33;;;3.80;;
18875;SDS011;9570;50.854;13.778;2022-10-20T03:36:08;4.10;;;3.70;;
18875;SDS011;9570;50.854;13.778;2022-10-20T03:38:34;4.63;;;3.57;;
18875;SDS011;9570;50.854;13.778;2022-10-20T03:41:00;5.07;;;4.30;;
18875;SDS011;9570;50.854;13.778;2022-10-20T03:43:25;4.83;;;3.90;;
18875;SDS011;9570;50.854;13.778;2022-10-20T03:45:59;5.70;;;3.97;;
18875;SDS011;9570;50.854;13.778;2022-10-20T03:48:29;4.67;;;3.90;;
18875;SDS011;9570;50.854;13.778;2022-10-20T03:50:54;5.20;;;4.10;;
18875;SDS011;9570;50.854;13.778;2022-10-20T03:53:20;9.53;;;4.23;;
18875;SDS011;9570;50.854;13.778;2022-10-20T03:55:45;5.37;;;3.63;;
18875;SDS011;9570;50.854;13.778;2022-10-20T03:58:11;4.80;;;3.40;;
18875;SDS011;9570;50.854;13.778;2022-10-20T04:00:36;6.17;;;3.57;;
18875;SDS011;9570;50.854;13.778;2022-10-20T04:03:02;3.90;;;3.10;;
18875;SDS011;9570;50.854;13.778;2022-10-20T04:05:27;4.70;;;2.70;;
18875;SDS011;9570;50.854;13.778;2022-10-20T04:07:53;5.30;;;2.80;;
18875;SDS011;9570;50.854;13.778;2022-10-20T04:10:18;3.07;;;2.50;;
18875;SDS011;9570;50.854;13.778;2022-10-20T04:12:44;4.20;;;2.60;;
18875;SDS011;9570;50.854;13.778;2022-10-20T04:15:09;5.10;;;2.70;;
18875;SDS011;9570;50.854;13.778;2022-10-20T04:17:35;3.23;;;2.47;;
18875;SDS011;9570;50.854;13.778;2022-10-20T04:20:02;9.83;;;2.53;;
18875;SDS011;9570;50.854;13.778;2022-10-20T04:22:28;2.23;;;2.03;;
18875;SDS011;9570;50.854;13.778;2022-10-20T04:24:54;2.60;;;2.27;;
18875;SDS011;9570;50.854;13.778;2022-10-20T04:27:19;5.90;;;2.20;;
18875;SDS011;9570;50.854;13.778;2022-10-20T04:29:45;2.67;;;2.13;;
18875;SDS011;9570;50.854;13.778;2022-10-20T04:32:11;2.73;;;1.90;;
18875;SDS011;9570;50.854;13.778;2022-10-20T04:34:37;5.97;;;1.83;;
18875;SDS011;9570;50.854;13.778;2022-10-20T04:37:02;4.00;;;1.90;;
18875;SDS011;9570;50.854;13.778;2022-10-20T04:39:28;2.73;;;1.80;;
18875;SDS011;9570;50.854;13.778;2022-10-20T04:41:54;3.97;;;2.20;;
18875;SDS011;9570;50.854;13.778;2022-10-20T04:44:19;2.43;;;1.80;;
18875;SDS011;9570;50.854;13.778;2022-10-20T04:46:45;1.87;;;1.70;;
18875;SDS011;9570;50.854;13.778;2022-10-20T04:49:10;4.20;;;1.80;;
18875;SDS011;9570;50.854;13.778;2022-10-20T04:51:36;4.53;;;1.60;;
18875;SDS011;9570;50.854;13.778;2022-10-20T04:54:01;2.23;;;1.70;;
18875;SDS011;9570;50.854;13.778;2022-10-20T04:56:27;1.80;;;1.70;;
18875;SDS011;9570;50.854;13.778;2022-10-20T04:58:54;2.60;;;1.90;;
18875;SDS011;9570;50.854;13.778;2022-10-20T05:01:21;3.57;;;1.90;;
18875;SDS011;9570;50.854;13.778;2022-10-20T05:03:48;2.57;;;1.80;;
18875;SDS011;9570;50.854;13.778;2022-10-20T05:06:15;2.10;;;1.90;;
18875;SDS011;9570;50.854;13.778;2022-10-20T05:08:46;1.80;;;1.70;;
18875;SDS011;9570;50.854;13.778;2022-10-20T05:11:14;3.43;;;2.03;;
18875;SDS011;9570;50.854;13.778;2022-10-20T05:13:41;2.43;;;1.80;;
18875;SDS011;9570;50.854;13.778;2022-10-20T05:16:07;2.60;;;2.23;;
18875;SDS011;9570;50.854;13.778;2022-10-20T05:18:34;2.50;;;2.00;;
18875;SDS011;9570;50.854;13.778;2022-10-20T05:21:10;5.47;;;2.13;;
18875;SDS011;9570;50.854;13.778;2022-10-20T05:23:41;3.03;;;2.07;;
18875;SDS011;9570;50.854;13.778;2022-10-20T05:26:09;3.83;;;2.17;;
18875;SDS011;9570;50.854;13.778;2022-10-20T05:28:43;3.90;;;1.87;;
18875;SDS011;9570;50.854;13.778;2022-10-20T05:31:10;1.77;;;1.67;;
18875;SDS011;9570;50.854;13.778;2022-10-20T05:33:36;2.33;;;1.83;;
18875;SDS011;9570;50.854;13.778;2022-10-20T05:36:06;2.30;;;1.70;;
18875;SDS011;9570;50.854;13.778;2022-10-20T05:38:33;3.60;;;1.70;;
18875;SDS011;9570;50.854;13.778;2022-10-20T05:41:20;4.97;;;2.27;;
18875;SDS011;9570;50.854;13.778;2022-10-20T05:43:50;2.93;;;1.97;;
18875;SDS011;9570;50.854;13.778;2022-10-20T05:46:18;3.73;;;1.87;;
18875;SDS011;9570;50.854;13.778;2022-10-20T05:48:44;2.33;;;1.87;;
18875;SDS011;9570;50.854;13.778;2022-10-20T05:51:11;2.97;;;1.73;;
18875;SDS011;9570;50.854;13.778;2022-10-20T05:53:39;2.23;;;1.73;;
18875;SDS011;9570;50.854;13.778;2022-10-20T05:56:05;2.70;;;1.80;;
18875;SDS011;9570;50.854;13.778;2022-10-20T05:58:32;2.00;;;1.77;;
18875;SDS011;9570;50.854;13.778;2022-10-20T06:01:17;2.60;;;1.70;;
18875;SDS011;9570;50.854;13.778;2022-10-20T06:04:11;1.97;;;1.70;;
18875;SDS011;9570;50.854;13.778;2022-10-20T06:06:37;3.97;;;1.50;;
18875;SDS011;9570;50.854;13.778;2022-10-20T06:09:04;2.70;;;2.00;;
18875;SDS011;9570;50.854;13.778;2022-10-20T06:11:31;3.30;;;1.67;;
18875;SDS011;9570;50.854;13.778;2022-10-20T06:13:57;2.20;;;2.00;;
18875;SDS011;9570;50.854;13.778;2022-10-20T06:16:23;4.57;;;1.73;;
18875;SDS011;9570;50.854;13.778;2022-10-20T06:18:49;3.17;;;1.80;;
18875;SDS011;9570;50.854;13.778;2022-10-20T06:21:19;4.00;;;2.03;;
18875;SDS011;9570;50.854;13.778;2022-10-20T06:23:46;5.13;;;2.00;;
18875;SDS011;9570;50.854;13.778;2022-10-20T06:26:14;3.10;;;1.73;;
18875;SDS011;9570;50.854;13.778;2022-10-20T06:28:44;8.07;;;2.03;;
18875;SDS011;9570;50.854;13.778;2022-10-20T06:31:13;2.43;;;1.77;;
18875;SDS011;9570;50.854;13.778;2022-10-20T06:33:39;2.47;;;1.90;;
18875;SDS011;9570;50.854;13.778;2022-10-20T06:36:06;2.67;;;1.90;;
18875;SDS011;9570;50.854;13.778;2022-10-20T06:38:32;4.43;;;1.80;;
18875;SDS011;9570;50.854;13.778;2022-10-20T06:41:03;2.70;;;1.60;;
18875;SDS011;9570;50.854;13.778;2022-10-20T06:43:30;3.40;;;1.80;;
18875;SDS011;9570;50.854;13.778;2022-10-20T06:45:57;3.27;;;2.00;;
18875;SDS011;9570;50.854;13.778;2022-10-20T06:48:27;2.90;;;1.80;;
18875;SDS011;9570;50.854;13.778;2022-10-20T06:50:57;3.00;;;2.10;;
18875;SDS011;9570;50.854;13.778;2022-10-20T06:53:24;2.70;;;1.97;;
18875;SDS011;9570;50.854;13.778;2022-10-20T06:55:55;2.90;;;1.90;;
18875;SDS011;9570;50.854;13.778;2022-10-20T06:58:22;2.50;;;1.57;;
18875;SDS011;9570;50.854;13.778;2022-10-20T07:00:56;2.30;;;1.47;;
18875;SDS011;9570;50.854;13.778;2022-10-20T07:03:26;5.50;;;2.00;;
18875;SDS011;9570;50.854;13.778;2022-10-20T07:05:53;2.00;;;1.80;;
18875;SDS011;9570;50.854;13.778;2022-10-20T07:08:18;4.47;;;2.10;;
18875;SDS011;9570;50.854;13.778;2022-10-20T07:10:44;2.17;;;1.60;;
18875;SDS011;9570;50.854;13.778;2022-10-20T07:13:09;2.13;;;1.63;;
18875;SDS011;9570;50.854;13.778;2022-10-20T07:15:35;3.50;;;1.90;;
18875;SDS011;9570;50.854;13.778;2022-10-20T07:18:00;3.23;;;1.53;;
18875;SDS011;9570;50.854;13.778;2022-10-20T07:20:26;1.70;;;1.30;;
18875;SDS011;9570;50.854;13.778;2022-10-20T07:22:51;3.30;;;1.40;;
18875;SDS011;9570;50.854;13.778;2022-10-20T07:25:17;2.77;;;1.47;;
18875;SDS011;9570;50.854;13.778;2022-10-20T07:27:46;2.00;;;1.50;;
18875;SDS011;9570;50.854;13.778;2022-10-20T07:30:11;1.33;;;1.20;;
18875;SDS011;9570;50.854;13.778;2022-10-20T07:32:37;3.77;;;1.60;;
18875;SDS011;9570;50.854;13.778;2022-10-20T07:35:03;3.90;;;1.40;;
18875;SDS011;9570;50.854;13.778;2022-10-20T07:37:29;2.17;;;1.33;;
18875;SDS011;9570;50.854;13.778;2022-10-20T07:39:54;2.10;;;1.27;;
18875;SDS011;9570;50.854;13.778;2022-10-20T07:42:20;2.47;;;1.37;;
18875;SDS011;9570;50.854;13.778;2022-10-20T07:44:45;3.30;;;1.27;;
18875;SDS011;9570;50.854;13.778;2022-10-20T07:47:11;3.43;;;1.30;;
18875;SDS011;9570;50.854;13.778;2022-10-20T07:49:36;2.40;;;1.17;;
18875;SDS011;9570;50.854;13.778;2022-10-20T07:52:02;2.63;;;1.33;;
18875;SDS011;9570;50.854;13.778;2022-10-20T07:54:28;3.77;;;1.30;;
18875;SDS011;9570;50.854;13.778;2022-10-20T07:56:53;1.10;;;1.00;;
18875;SDS011;9570;50.854;13.778;2022-10-20T07:59:19;5.00;;;1.27;;
18875;SDS011;9570;50.854;13.778;2022-10-20T08:01:44;1.73;;;1.20;;
18875;SDS011;9570;50.854;13.778;2022-10-20T08:04:10;2.03;;;1.20;;
18875;SDS011;9570;50.854;13.778;2022-10-20T08:06:36;2.67;;;1.27;;
18875;SDS011;9570;50.854;13.778;2022-10-20T08:09:02;1.30;;;1.20;;
18875;SDS011;9570;50.854;13.778;2022-10-20T08:11:28;3.07;;;1.47;;
18875;SDS011;9570;50.854;13.778;2022-10-20T08:13:53;1.30;;;1.20;;
18875;SDS011;9570;50.854;13.778;2022-10-20T08:16:19;1.43;;;1.20;;
18875;SDS011;9570;50.854;13.778;2022-10-20T08:18:46;2.47;;;1.47;;
18875;SDS011;9570;50.854;13.778;2022-10-20T08:21:13;2.07;;;1.47;;
18875;SDS011;9570;50.854;13.778;2022-10-20T08:23:42;2.00;;;1.20;;
18875;SDS011;9570;50.854;13.778;2022-10-20T08:26:09;2.13;;;1.30;;
18875;SDS011;9570;50.854;13.778;2022-10-20T08:28:36;3.17;;;1.53;;
18875;SDS011;9570;50.854;13.778;2022-10-20T08:31:05;4.13;;;1.37;;
18875;SDS011;9570;50.854;13.778;2022-10-20T08:33:31;2.10;;;1.57;;
18875;SDS011;9570;50.854;13.778;2022-10-20T08:36:02;3.03;;;1.30;;
18875;SDS011;9570;50.854;13.778;2022-10-20T08:38:29;3.30;;;1.50;;
18875;SDS011;9570;50.854;13.778;2022-10-20T08:40:54;4.47;;;1.60;;
18875;SDS011;9570;50.854;13.778;2022-10-20T08:43:21;2.80;;;1.40;;
18875;SDS011;9570;50.854;13.778;2022-10-20T08:45:47;2.43;;;1.50;;
18875;SDS011;9570;50.854;13.778;2022-10-20T08:48:17;3.17;;;1.50;;
18875;SDS011;9570;50.854;13.778;2022-10-20T08:50:46;3.40;;;1.40;;
18875;SDS011;9570;50.854;13.778;2022-10-20T08:53:14;2.57;;;1.30;;
18875;SDS011;9570;50.854;13.778;2022-10-20T08:55:41;4.00;;;1.40;;
18875;SDS011;9570;50.854;13.778;2022-10-20T08:58:17;1.83;;;1.57;;
18875;SDS011;9570;50.854;13.778;2022-10-20T09:00:45;1.93;;;1.40;;
18875;SDS011;9570;50.854;13.778;2022-10-20T09:03:17;1.47;;;1.37;;
18875;SDS011;9570;50.854;13.778;2022-10-20T09:05:48;2.43;;;1.30;;
18875;SDS011;9570;50.854;13.778;2022-10-20T09:08:35;3.20;;;1.50;;
18875;SDS011;9570;50.854;13.778;2022-10-20T09:11:03;1.57;;;1.37;;
18875;SDS011;9570;50.854;13.778;2022-10-20T09:13:32;2.33;;;1.60;;
18875;SDS011;9570;50.854;13.778;2022-10-20T09:16:03;1.27;;;1.17;;
18875;SDS011;9570;50.854;13.778;2022-10-20T09:18:31;1.87;;;1.30;;
18875;SDS011;9570;50.854;13.778;2022-10-20T09:21:04;1.73;;;1.40;;
18875;SDS011;9570;50.854;13.778;2022-10-20T09:23:42;1.83;;;1.50;;
18875;SDS011;9570;50.854;13.778;2022-10-20T09:26:13;4.40;;;1.53;;
18875;SDS011;9570;50.854;13.778;2022-10-20T09:28:39;1.50;;;1.27;;
18875;SDS011;9570;50.854;13.778;2022-10-20T09:31:18;2.00;;;1.30;;
18875;SDS011;9570;50.854;13.778;2022-10-20T09:34:18;2.80;;;1.30;;
18875;SDS011;9570;50.854;13.778;2022-10-20T09:39:49;1.80;;;1.50;;
18875;SDS011;9570;50.854;13.778;2022-10-20T09:42:21;2.07;;;1.50;;
18875;SDS011;9570;50.854;13.778;2022-10-20T09:44:51;2.00;;;1.40;;
18875;SDS011;9570;50.854;13.778;2022-10-20T09:47:21;2.80;;;1.40;;
18875;SDS011;9570;50.854;13.778;2022-10-20T09:50:06;2.00;;;1.37;;
18875;SDS011;9570;50.854;13.778;2022-10-20T09:52:41;1.63;;;1.30;;
18875;SDS011;9570;50.854;13.778;2022-10-20T09:55:25;2.23;;;1.67;;
18875;SDS011;9570;50.854;13.778;2022-10-20T09:57:57;2.93;;;1.60;;
18875;SDS011;9570;50.854;13.778;2022-10-20T10:00:32;2.90;;;1.20;;
18875;SDS011;9570;50.854;13.778;2022-10-20T10:03:06;1.70;;;1.50;;
18875;SDS011;9570;50.854;13.778;2022-10-20T10:05:33;4.60;;;1.47;;
18875;SDS011;9570;50.854;13.778;2022-10-20T10:07:59;2.40;;;1.47;;
18875;SDS011;9570;50.854;13.778;2022-10-20T10:10:29;1.67;;;1.23;;
18875;SDS011;9570;50.854;13.778;2022-10-20T10:12:56;5.07;;;1.73;;
18875;SDS011;9570;50.854;13.778;2022-10-20T10:15:26;1.70;;;1.40;;
18875;SDS011;9570;50.854;13.778;2022-10-20T10:17:57;2.70;;;1.53;;
18875;SDS011;9570;50.854;13.778;2022-10-20T10:25:46;2.77;;;1.70;;
18875;SDS011;9570;50.854;13.778;2022-10-20T10:30:47;4.93;;;1.80;;
18875;SDS011;9570;50.854;13.778;2022-10-20T10:33:25;3.33;;;1.80;;
18875;SDS011;9570;50.854;13.778;2022-10-20T10:35:52;3.70;;;1.87;;
18875;SDS011;9570;50.854;13.778;2022-10-20T10:38:18;2.93;;;1.90;;
18875;SDS011;9570;50.854;13.778;2022-10-20T10:43:53;4.63;;;2.20;;
18875;SDS011;9570;50.854;13.778;2022-10-20T10:46:41;4.47;;;2.13;;
18875;SDS011;9570;50.854;13.778;2022-10-20T10:52:15;2.73;;;2.00;;
18875;SDS011;9570;50.854;13.778;2022-10-20T10:58:13;3.93;;;2.20;;
18875;SDS011;9570;50.854;13.778;2022-10-20T11:09:24;2.67;;;2.20;;
18875;SDS011;9570;50.854;13.778;2022-10-20T11:14:53;3.40;;;2.00;;
18875;SDS011;9570;50.854;13.778;2022-10-20T11:20:07;5.13;;;2.73;;
18875;SDS011;9570;50.854;13.778;2022-10-20T11:25:32;2.70;;;2.27;;
18875;SDS011;9570;50.854;13.778;2022-10-20T11:28:03;3.37;;;2.20;;
18875;SDS011;9570;50.854;13.778;2022-10-20T11:30:37;3.33;;;2.20;;
18875;SDS011;9570;50.854;13.778;2022-10-20T11:38:14;4.90;;;2.90;;
18875;SDS011;9570;50.854;13.778;2022-10-20T11:40:49;6.20;;;2.80;;
18875;SDS011;9570;50.854;13.778;2022-10-20T11:45:55;6.23;;;3.40;;
18875;SDS011;9570;50.854;13.778;2022-10-20T11:51:31;5.97;;;3.47;;
18875;SDS011;9570;50.854;13.778;2022-10-20T11:57:04;4.43;;;3.20;;
18875;SDS011;9570;50.854;13.778;2022-10-20T11:59:59;5.53;;;3.70;;
18875;SDS011;9570;50.854;13.778;2022-10-20T12:02:52;5.40;;;3.70;;
18875;SDS011;9570;50.854;13.778;2022-10-20T12:08:35;6.93;;;4.20;;
18875;SDS011;9570;50.854;13.778;2022-10-20T12:11:36;6.93;;;3.93;;
18875;SDS011;9570;50.854;13.778;2022-10-20T12:19:19;6.30;;;4.20;;
18875;SDS011;9570;50.854;13.778;2022-10-20T12:21:57;6.43;;;3.97;;
18875;SDS011;9570;50.854;13.778;2022-10-20T12:24:38;8.80;;;4.17;;
18875;SDS011;9570;50.854;13.778;2022-10-20T12:34:45;6.07;;;4.47;;
18875;SDS011;9570;50.854;13.778;2022-10-20T12:37:23;8.27;;;4.43;;
18875;SDS011;9570;50.854;13.778;2022-10-20T12:39:52;7.90;;;4.10;;
18875;SDS011;9570;50.854;13.778;2022-10-20T12:42:20;6.37;;;4.27;;
18875;SDS011;9570;50.854;13.778;2022-10-20T12:44:52;10.73;;;4.17;;
18875;SDS011;9570;50.854;13.778;2022-10-20T12:52:40;7.40;;;3.73;;
18875;SDS011;9570;50.854;13.778;2022-10-20T12:55:19;4.93;;;3.47;;
18875;SDS011;9570;50.854;13.778;2022-10-20T12:58:08;4.67;;;3.60;;
18875;SDS011;9570;50.854;13.778;2022-10-20T13:05:56;6.33;;;4.10;;
18875;SDS011;9570;50.854;13.778;2022-10-20T13:08:23;7.47;;;3.87;;
18875;SDS011;9570;50.854;13.778;2022-10-20T13:10:55;7.77;;;3.67;;
18875;SDS011;9570;50.854;13.778;2022-10-20T13:15:48;7.47;;;3.97;;
18875;SDS011;9570;50.854;13.778;2022-10-20T13:18:18;6.67;;;4.10;;
18875;SDS011;9570;50.854;13.778;2022-10-20T13:21:16;7.80;;;4.70;;
18875;SDS011;9570;50.854;13.778;2022-10-20T13:24:04;4.83;;;4.00;;
18875;SDS011;9570;50.854;13.778;2022-10-20T13:26:45;6.00;;;4.30;;
18875;SDS011;9570;50.854;13.778;2022-10-20T13:29:19;7.70;;;4.70;;
18875;SDS011;9570;50.854;13.778;2022-10-20T13:31:54;6.07;;;4.40;;
18875;SDS011;9570;50.854;13.778;2022-10-20T13:34:47;6.00;;;3.67;;
18875;SDS011;9570;50.854;13.778;2022-10-20T13:43:26;7.00;;;4.60;;
18875;SDS011;9570;50.854;13.778;2022-10-20T13:48:45;5.23;;;4.23;;
18875;SDS011;9570;50.854;13.778;2022-10-20T13:51:25;9.37;;;4.80;;
18875;SDS011;9570;50.854;13.778;2022-10-20T13:53:55;6.23;;;4.60;;
18875;SDS011;9570;50.854;13.778;2022-10-20T13:56:37;8.33;;;5.20;;
18875;SDS011;9570;50.854;13.778;2022-10-20T14:01:39;6.70;;;5.33;;
18875;SDS011;9570;50.854;13.778;2022-10-20T14:04:23;7.60;;;5.23;;
18875;SDS011;9570;50.854;13.778;2022-10-20T14:06:53;9.37;;;5.57;;
18875;SDS011;9570;50.854;13.778;2022-10-20T14:09:21;7.17;;;5.70;;
18875;SDS011;9570;50.854;13.778;2022-10-20T14:11:50;8.57;;;5.27;;
18875;SDS011;9570;50.854;13.778;2022-10-20T14:14:21;8.83;;;5.23;;
18875;SDS011;9570;50.854;13.778;2022-10-20T14:16:53;8.50;;;4.90;;
18875;SDS011;9570;50.854;13.778;2022-10-20T14:19:21;7.97;;;5.70;;
18875;SDS011;9570;50.854;13.778;2022-10-20T14:21:51;9.37;;;5.10;;
18875;SDS011;9570;50.854;13.778;2022-10-20T14:24:34;8.47;;;5.17;;
18875;SDS011;9570;50.854;13.778;2022-10-20T14:27:04;7.33;;;4.97;;
18875;SDS011;9570;50.854;13.778;2022-10-20T14:29:31;8.03;;;5.07;;
18875;SDS011;9570;50.854;13.778;2022-10-20T14:32:00;10.20;;;4.57;;
18875;SDS011;9570;50.854;13.778;2022-10-20T14:34:30;6.90;;;5.07;;
18875;SDS011;9570;50.854;13.778;2022-10-20T14:36:58;7.10;;;5.40;;
18875;SDS011;9570;50.854;13.778;2022-10-20T14:39:31;6.87;;;5.33;;
18875;SDS011;9570;50.854;13.778;2022-10-20T14:41:57;5.77;;;4.27;;
18875;SDS011;9570;50.854;13.778;2022-10-20T14:44:24;7.57;;;5.60;;
18875;SDS011;9570;50.854;13.778;2022-10-20T14:46:50;10.33;;;6.37;;
18875;SDS011;9570;50.854;13.778;2022-10-20T14:49:24;8.77;;;5.83;;
18875;SDS011;9570;50.854;13.778;2022-10-20T14:51:57;12.70;;;6.07;;
18875;SDS011;9570;50.854;13.778;2022-10-20T14:54:24;7.43;;;5.40;;
18875;SDS011;9570;50.854;13.778;2022-10-20T14:56:59;7.87;;;5.53;;
18875;SDS011;9570;50.854;13.778;2022-10-20T14:59:27;7.03;;;5.80;;
18875;SDS011;9570;50.854;13.778;2022-10-20T15:04:37;8.77;;;6.10;;
18875;SDS011;9570;50.854;13.778;2022-10-20T15:07:18;7.87;;;6.37;;
18875;SDS011;9570;50.854;13.778;2022-10-20T15:09:51;9.73;;;6.00;;
18875;SDS011;9570;50.854;13.778;2022-10-20T15:12:20;9.10;;;5.40;;
18875;SDS011;9570;50.854;13.778;2022-10-20T15:14:50;9.60;;;5.20;;
18875;SDS011;9570;50.854;13.778;2022-10-20T15:17:30;9.37;;;6.70;;
18875;SDS011;9570;50.854;13.778;2022-10-20T15:22:54;12.83;;;7.53;;
18875;SDS011;9570;50.854;13.778;2022-10-20T15:25:20;11.10;;;7.37;;
18875;SDS011;9570;50.854;13.778;2022-10-20T15:27:46;11.87;;;7.10;;
18875;SDS011;9570;50.854;13.778;2022-10-20T15:30:14;9.47;;;7.43;;
18875;SDS011;9570;50.854;13.778;2022-10-20T15:32:41;11.27;;;7.40;;
18875;SDS011;9570;50.854;13.778;2022-10-20T15:35:14;12.13;;;6.77;;
18875;SDS011;9570;50.854;13.778;2022-10-20T15:37:42;9.77;;;7.00;;
18875;SDS011;9570;50.854;13.778;2022-10-20T15:40:16;11.83;;;7.87;;
18875;SDS011;9570;50.854;13.778;2022-10-20T15:42:42;9.47;;;6.63;;
18875;SDS011;9570;50.854;13.778;2022-10-20T15:45:11;8.30;;;6.50;;
18875;SDS011;9570;50.854;13.778;2022-10-20T15:47:46;12.73;;;7.50;;
18875;SDS011;9570;50.854;13.778;2022-10-20T15:50:12;10.73;;;7.43;;
18875;SDS011;9570;50.854;13.778;2022-10-20T15:52:38;16.97;;;8.00;;
18875;SDS011;9570;50.854;13.778;2022-10-20T15:55:17;12.63;;;8.13;;
18875;SDS011;9570;50.854;13.778;2022-10-20T15:57:48;9.73;;;7.40;;
18875;SDS011;9570;50.854;13.778;2022-10-20T16:00:15;11.53;;;7.87;;
18875;SDS011;9570;50.854;13.778;2022-10-20T16:02:41;13.10;;;7.77;;
18875;SDS011;9570;50.854;13.778;2022-10-20T16:05:06;10.20;;;7.90;;
18875;SDS011;9570;50.854;13.778;2022-10-20T16:07:32;10.97;;;7.73;;
18875;SDS011;9570;50.854;13.778;2022-10-20T16:09:57;11.03;;;7.80;;
18875;SDS011;9570;50.854;13.778;2022-10-20T16:12:23;9.87;;;7.13;;
18875;SDS011;9570;50.854;13.778;2022-10-20T16:14:49;8.57;;;7.13;;
18875;SDS011;9570;50.854;13.778;2022-10-20T16:17:15;10.00;;;7.50;;
18875;SDS011;9570;50.854;13.778;2022-10-20T16:19:41;14.40;;;7.90;;
18875;SDS011;9570;50.854;13.778;2022-10-20T16:22:06;12.17;;;8.20;;
18875;SDS011;9570;50.854;13.778;2022-10-20T16:24:32;10.13;;;8.03;;
18875;SDS011;9570;50.854;13.778;2022-10-20T16:26:57;12.37;;;8.27;;
18875;SDS011;9570;50.854;13.778;2022-10-20T16:29:23;13.17;;;8.10;;
18875;SDS011;9570;50.854;13.778;2022-10-20T16:31:48;9.50;;;8.07;;
18875;SDS011;9570;50.854;13.778;2022-10-20T16:34:14;12.07;;;8.70;;
18875;SDS011;9570;50.854;13.778;2022-10-20T16:36:39;11.37;;;8.67;;
18875;SDS011;9570;50.854;13.778;2022-10-20T16:39:05;11.73;;;8.10;;
18875;SDS011;9570;50.854;13.778;2022-10-20T16:41:30;11.03;;;8.07;;
18875;SDS011;9570;50.854;13.778;2022-10-20T16:43:56;12.30;;;8.23;;
18875;SDS011;9570;50.854;13.778;2022-10-20T16:46:21;13.73;;;8.20;;
18875;SDS011;9570;50.854;13.778;2022-10-20T16:48:47;10.40;;;7.33;;
18875;SDS011;9570;50.854;13.778;2022-10-20T16:51:13;12.50;;;7.83;;
18875;SDS011;9570;50.854;13.778;2022-10-20T16:53:39;9.33;;;7.57;;
18875;SDS011;9570;50.854;13.778;2022-10-20T16:56:05;8.93;;;7.17;;
18875;SDS011;9570;50.854;13.778;2022-10-20T16:58:31;10.53;;;7.50;;
18875;SDS011;9570;50.854;13.778;2022-10-20T17:01:00;9.57;;;7.47;;